sensor_id;sensor_type;location;lat;lon;timestamp;P1;durP1;ratioP1;P2;durP2;ratioP2
22851;SDS011;11592;45.460;9.240;2023-05-10T00:01:32;28.25;;;17.35;;
22851;SDS011;11592;45.460;9.240;2023-05-10T00:03:59;27.60;;;17.95;;
22851;SDS011;11592;45.460;9.240;2023-05-10T00:06:26;25.48;;;16.65;;
22851;SDS011;11592;45.460;9.240;2023-05-10T00:08:53;25.25;;;17.30;;
22851;SDS011;11592;45.460;9.240;2023-05-10T00:11:20;31.58;;;19.17;;
22851;SDS011;11592;45.460;9.240;2023-05-10T00:13:48;25.77;;;17.38;;
22851;SDS011;11592;45.460;9.240;2023-05-10T00:16:15;26.08;;;16.63;;
22851;SDS011;11592;45.460;9.240;2023-05-10T00:18:42;25.05;;;17.52;;
22851;SDS011;11592;45.460;9.240;2023-05-10T00:21:08;23.80;;;17.48;;
22851;SDS011;11592;45.460;9.240;2023-05-10T00:23:35;24.08;;;17.13;;
22851;SDS011;11592;45.460;9.240;2023-05-10T00:26:02;26.67;;;16.33;;
22851;SDS011;11592;45.460;9.240;2023-05-10T00:28:29;23.58;;;14.98;;
22851;SDS011;11592;45.460;9.240;2023-05-10T00:30:56;24.73;;;17.15;;
22851;SDS011;11592;45.460;9.240;2023-05-10T00:33:23;24.20;;;16.02;;
22851;SDS011;11592;45.460;9.240;2023-05-10T00:35:49;26.42;;;17.00;;
22851;SDS011;11592;45.460;9.240;2023-05-10T00:38:16;26.98;;;16.55;;
22851;SDS011;11592;45.460;9.240;2023-05-10T00:40:43;23.08;;;17.08;;
22851;SDS011;11592;45.460;9.240;2023-05-10T00:43:10;24.85;;;16.85;;
22851;SDS011;11592;45.460;9.240;2023-05-10T00:45:37;25.38;;;16.55;;
22851;SDS011;11592;45.460;9.240;2023-05-10T00:48:06;23.58;;;16.27;;
22851;SDS011;11592;45.460;9.240;2023-05-10T00:50:33;24.77;;;17.38;;
22851;SDS011;11592;45.460;9.240;2023-05-10T00:53:01;22.70;;;16.42;;
22851;SDS011;11592;45.460;9.240;2023-05-10T00:55:29;24.08;;;16.50;;
22851;SDS011;11592;45.460;9.240;2023-05-10T00:57:56;22.77;;;15.40;;
22851;SDS011;11592;45.460;9.240;2023-05-10T01:00:23;22.30;;;15.48;;
22851;SDS011;11592;45.460;9.240;2023-05-10T01:02:50;22.02;;;14.43;;
22851;SDS011;11592;45.460;9.240;2023-05-10T01:05:17;23.80;;;15.60;;
22851;SDS011;11592;45.460;9.240;2023-05-10T01:07:44;23.58;;;15.50;;
22851;SDS011;11592;45.460;9.240;2023-05-10T01:10:12;21.02;;;15.05;;
22851;SDS011;11592;45.460;9.240;2023-05-10T01:12:40;24.98;;;17.40;;
22851;SDS011;11592;45.460;9.240;2023-05-10T01:15:11;22.10;;;15.82;;
22851;SDS011;11592;45.460;9.240;2023-05-10T01:17:40;23.05;;;15.43;;
22851;SDS011;11592;45.460;9.240;2023-05-10T01:20:10;22.88;;;16.15;;
22851;SDS011;11592;45.460;9.240;2023-05-10T01:25:28;23.48;;;15.60;;
22851;SDS011;11592;45.460;9.240;2023-05-10T01:28:09;23.38;;;15.50;;
22851;SDS011;11592;45.460;9.240;2023-05-10T01:41:52;26.98;;;16.02;;
22851;SDS011;11592;45.460;9.240;2023-05-10T01:47:16;23.67;;;15.75;;
22851;SDS011;11592;45.460;9.240;2023-05-10T01:49:49;23.60;;;15.68;;
22851;SDS011;11592;45.460;9.240;2023-05-10T01:52:19;23.40;;;15.63;;
22851;SDS011;11592;45.460;9.240;2023-05-10T01:54:55;22.75;;;15.07;;
22851;SDS011;11592;45.460;9.240;2023-05-10T01:59:58;23.30;;;14.70;;
22851;SDS011;11592;45.460;9.240;2023-05-10T02:02:27;21.02;;;14.73;;
22851;SDS011;11592;45.460;9.240;2023-05-10T02:04:56;21.25;;;14.60;;
22851;SDS011;11592;45.460;9.240;2023-05-10T02:07:24;22.10;;;15.40;;
22851;SDS011;11592;45.460;9.240;2023-05-10T02:09:53;21.77;;;14.52;;
22851;SDS011;11592;45.460;9.240;2023-05-10T02:12:21;19.50;;;13.80;;
22851;SDS011;11592;45.460;9.240;2023-05-10T02:14:50;21.17;;;13.48;;
22851;SDS011;11592;45.460;9.240;2023-05-10T02:17:18;21.95;;;14.48;;
22851;SDS011;11592;45.460;9.240;2023-05-10T02:19:46;22.92;;;15.02;;
22851;SDS011;11592;45.460;9.240;2023-05-10T02:22:13;20.45;;;13.18;;
22851;SDS011;11592;45.460;9.240;2023-05-10T02:24:42;21.00;;;13.55;;
22851;SDS011;11592;45.460;9.240;2023-05-10T02:27:10;20.08;;;13.88;;
22851;SDS011;11592;45.460;9.240;2023-05-10T02:29:38;17.25;;;12.63;;
22851;SDS011;11592;45.460;9.240;2023-05-10T02:32:05;17.48;;;12.05;;
22851;SDS011;11592;45.460;9.240;2023-05-10T02:34:32;19.30;;;12.30;;
22851;SDS011;11592;45.460;9.240;2023-05-10T02:36:59;18.40;;;11.80;;
22851;SDS011;11592;45.460;9.240;2023-05-10T02:39:28;17.38;;;11.13;;
22851;SDS011;11592;45.460;9.240;2023-05-10T02:41:57;13.60;;;9.77;;
22851;SDS011;11592;45.460;9.240;2023-05-10T02:44:24;16.55;;;11.02;;
22851;SDS011;11592;45.460;9.240;2023-05-10T02:46:57;14.80;;;10.30;;
22851;SDS011;11592;45.460;9.240;2023-05-10T02:49:24;15.43;;;9.90;;
22851;SDS011;11592;45.460;9.240;2023-05-10T02:51:51;14.68;;;9.75;;
22851;SDS011;11592;45.460;9.240;2023-05-10T02:54:27;15.00;;;8.90;;
22851;SDS011;11592;45.460;9.240;2023-05-10T02:56:58;13.30;;;9.05;;
22851;SDS011;11592;45.460;9.240;2023-05-10T02:59:28;14.00;;;9.07;;
22851;SDS011;11592;45.460;9.240;2023-05-10T03:01:55;12.88;;;8.80;;
22851;SDS011;11592;45.460;9.240;2023-05-10T03:04:22;12.20;;;8.30;;
22851;SDS011;11592;45.460;9.240;2023-05-10T03:06:49;14.18;;;8.05;;
22851;SDS011;11592;45.460;9.240;2023-05-10T03:09:16;13.25;;;8.63;;
22851;SDS011;11592;45.460;9.240;2023-05-10T03:14:31;13.75;;;8.68;;
22851;SDS011;11592;45.460;9.240;2023-05-10T03:17:06;16.90;;;8.60;;
22851;SDS011;11592;45.460;9.240;2023-05-10T03:19:43;11.55;;;8.48;;
22851;SDS011;11592;45.460;9.240;2023-05-10T03:22:34;14.68;;;9.10;;
22851;SDS011;11592;45.460;9.240;2023-05-10T03:25:16;13.25;;;8.55;;
22851;SDS011;11592;45.460;9.240;2023-05-10T03:27:44;14.30;;;8.45;;
22851;SDS011;11592;45.460;9.240;2023-05-10T03:30:12;12.57;;;9.43;;
22851;SDS011;11592;45.460;9.240;2023-05-10T03:32:40;12.57;;;8.25;;
22851;SDS011;11592;45.460;9.240;2023-05-10T03:35:08;14.23;;;9.20;;
22851;SDS011;11592;45.460;9.240;2023-05-10T03:37:35;11.98;;;8.70;;
22851;SDS011;11592;45.460;9.240;2023-05-10T03:40:02;12.82;;;8.68;;
22851;SDS011;11592;45.460;9.240;2023-05-10T03:42:30;10.60;;;8.30;;
22851;SDS011;11592;45.460;9.240;2023-05-10T03:44:56;12.90;;;8.50;;
22851;SDS011;11592;45.460;9.240;2023-05-10T03:47:23;12.52;;;8.32;;
22851;SDS011;11592;45.460;9.240;2023-05-10T03:49:50;13.38;;;7.95;;
22851;SDS011;11592;45.460;9.240;2023-05-10T03:52:17;14.00;;;8.63;;
22851;SDS011;11592;45.460;9.240;2023-05-10T03:54:44;10.63;;;6.93;;
22851;SDS011;11592;45.460;9.240;2023-05-10T03:57:11;11.23;;;7.72;;
22851;SDS011;11592;45.460;9.240;2023-05-10T03:59:37;10.18;;;7.40;;
22851;SDS011;11592;45.460;9.240;2023-05-10T04:02:04;12.27;;;7.57;;
22851;SDS011;11592;45.460;9.240;2023-05-10T04:04:31;10.02;;;7.25;;
22851;SDS011;11592;45.460;9.240;2023-05-10T04:06:58;8.90;;;6.78;;
22851;SDS011;11592;45.460;9.240;2023-05-10T04:09:25;14.18;;;7.22;;
22851;SDS011;11592;45.460;9.240;2023-05-10T04:11:52;11.40;;;7.43;;
22851;SDS011;11592;45.460;9.240;2023-05-10T04:14:19;13.02;;;7.03;;
22851;SDS011;11592;45.460;9.240;2023-05-10T04:16:46;10.32;;;7.15;;
22851;SDS011;11592;45.460;9.240;2023-05-10T04:19:13;13.05;;;7.10;;
22851;SDS011;11592;45.460;9.240;2023-05-10T04:21:40;9.57;;;6.82;;
22851;SDS011;11592;45.460;9.240;2023-05-10T04:24:06;12.48;;;7.40;;
22851;SDS011;11592;45.460;9.240;2023-05-10T04:26:33;11.50;;;6.97;;
22851;SDS011;11592;45.460;9.240;2023-05-10T04:29:00;10.00;;;7.30;;
22851;SDS011;11592;45.460;9.240;2023-05-10T04:31:27;9.50;;;6.65;;
22851;SDS011;11592;45.460;9.240;2023-05-10T04:33:54;10.55;;;6.20;;
22851;SDS011;11592;45.460;9.240;2023-05-10T04:36:21;9.48;;;6.53;;
22851;SDS011;11592;45.460;9.240;2023-05-10T04:38:47;10.50;;;6.75;;
22851;SDS011;11592;45.460;9.240;2023-05-10T04:41:14;8.85;;;6.38;;
22851;SDS011;11592;45.460;9.240;2023-05-10T04:43:41;9.60;;;6.28;;
22851;SDS011;11592;45.460;9.240;2023-05-10T04:46:08;9.93;;;5.90;;
22851;SDS011;11592;45.460;9.240;2023-05-10T04:48:35;7.93;;;5.97;;
22851;SDS011;11592;45.460;9.240;2023-05-10T04:51:02;9.40;;;6.20;;
22851;SDS011;11592;45.460;9.240;2023-05-10T04:53:30;9.23;;;6.22;;
22851;SDS011;11592;45.460;9.240;2023-05-10T04:55:56;10.85;;;7.22;;
22851;SDS011;11592;45.460;9.240;2023-05-10T04:58:23;10.85;;;6.82;;
22851;SDS011;11592;45.460;9.240;2023-05-10T05:00:50;13.30;;;6.45;;
22851;SDS011;11592;45.460;9.240;2023-05-10T05:03:17;8.50;;;6.55;;
22851;SDS011;11592;45.460;9.240;2023-05-10T05:05:44;12.05;;;6.63;;
22851;SDS011;11592;45.460;9.240;2023-05-10T05:08:11;11.23;;;7.00;;
22851;SDS011;11592;45.460;9.240;2023-05-10T05:10:38;9.25;;;6.45;;
22851;SDS011;11592;45.460;9.240;2023-05-10T05:13:04;11.13;;;7.28;;
22851;SDS011;11592;45.460;9.240;2023-05-10T05:15:31;11.30;;;6.32;;
22851;SDS011;11592;45.460;9.240;2023-05-10T05:17:59;12.95;;;7.10;;
22851;SDS011;11592;45.460;9.240;2023-05-10T05:20:26;9.57;;;6.57;;
22851;SDS011;11592;45.460;9.240;2023-05-10T05:22:53;12.35;;;7.38;;
22851;SDS011;11592;45.460;9.240;2023-05-10T05:25:19;10.85;;;7.00;;
22851;SDS011;11592;45.460;9.240;2023-05-10T05:27:46;10.45;;;6.82;;
22851;SDS011;11592;45.460;9.240;2023-05-10T05:30:13;11.27;;;7.20;;
22851;SDS011;11592;45.460;9.240;2023-05-10T05:32:40;9.68;;;6.22;;
22851;SDS011;11592;45.460;9.240;2023-05-10T05:35:07;8.77;;;6.65;;
22851;SDS011;11592;45.460;9.240;2023-05-10T05:37:34;8.02;;;6.10;;
22851;SDS011;11592;45.460;9.240;2023-05-10T05:40:01;8.15;;;6.72;;
22851;SDS011;11592;45.460;9.240;2023-05-10T05:42:28;9.43;;;6.57;;
22851;SDS011;11592;45.460;9.240;2023-05-10T05:44:56;10.63;;;7.28;;
22851;SDS011;11592;45.460;9.240;2023-05-10T05:47:23;12.55;;;7.00;;
22851;SDS011;11592;45.460;9.240;2023-05-10T05:49:50;9.05;;;6.45;;
22851;SDS011;11592;45.460;9.240;2023-05-10T05:52:17;10.20;;;6.53;;
22851;SDS011;11592;45.460;9.240;2023-05-10T05:54:44;9.60;;;6.25;;
22851;SDS011;11592;45.460;9.240;2023-05-10T05:57:10;8.85;;;6.50;;
22851;SDS011;11592;45.460;9.240;2023-05-10T05:59:37;9.43;;;6.30;;
22851;SDS011;11592;45.460;9.240;2023-05-10T06:02:09;9.52;;;6.03;;
22851;SDS011;11592;45.460;9.240;2023-05-10T06:04:36;9.80;;;6.57;;
22851;SDS011;11592;45.460;9.240;2023-05-10T06:07:04;9.38;;;6.00;;
22851;SDS011;11592;45.460;9.240;2023-05-10T06:09:31;9.98;;;6.10;;
22851;SDS011;11592;45.460;9.240;2023-05-10T06:11:57;11.38;;;6.68;;
22851;SDS011;11592;45.460;9.240;2023-05-10T06:14:24;8.85;;;6.15;;
22851;SDS011;11592;45.460;9.240;2023-05-10T06:16:51;8.93;;;6.82;;
22851;SDS011;11592;45.460;9.240;2023-05-10T06:19:18;10.07;;;6.55;;
22851;SDS011;11592;45.460;9.240;2023-05-10T06:21:44;8.93;;;6.65;;
22851;SDS011;11592;45.460;9.240;2023-05-10T06:24:11;8.88;;;6.63;;
22851;SDS011;11592;45.460;9.240;2023-05-10T06:26:38;9.98;;;6.85;;
22851;SDS011;11592;45.460;9.240;2023-05-10T06:29:05;12.57;;;7.18;;
22851;SDS011;11592;45.460;9.240;2023-05-10T06:31:32;8.48;;;6.38;;
22851;SDS011;11592;45.460;9.240;2023-05-10T06:33:59;9.90;;;7.20;;
22851;SDS011;11592;45.460;9.240;2023-05-10T06:36:26;8.43;;;5.82;;
22851;SDS011;11592;45.460;9.240;2023-05-10T06:38:53;8.55;;;6.30;;
22851;SDS011;11592;45.460;9.240;2023-05-10T06:41:21;8.65;;;5.50;;
22851;SDS011;11592;45.460;9.240;2023-05-10T06:43:49;7.97;;;5.80;;
22851;SDS011;11592;45.460;9.240;2023-05-10T06:46:16;9.23;;;6.00;;
22851;SDS011;11592;45.460;9.240;2023-05-10T06:48:43;9.20;;;6.78;;
22851;SDS011;11592;45.460;9.240;2023-05-10T06:51:10;9.75;;;6.03;;
22851;SDS011;11592;45.460;9.240;2023-05-10T06:53:37;10.35;;;5.95;;
22851;SDS011;11592;45.460;9.240;2023-05-10T06:56:04;9.10;;;5.80;;
22851;SDS011;11592;45.460;9.240;2023-05-10T06:58:31;10.23;;;5.53;;
22851;SDS011;11592;45.460;9.240;2023-05-10T07:01:02;7.53;;;5.22;;
22851;SDS011;11592;45.460;9.240;2023-05-10T07:03:30;6.47;;;5.13;;
22851;SDS011;11592;45.460;9.240;2023-05-10T07:06:01;8.20;;;5.50;;
22851;SDS011;11592;45.460;9.240;2023-05-10T07:08:30;8.48;;;5.00;;
22851;SDS011;11592;45.460;9.240;2023-05-10T07:11:04;8.10;;;4.70;;
22851;SDS011;11592;45.460;9.240;2023-05-10T07:13:33;9.38;;;5.60;;
22851;SDS011;11592;45.460;9.240;2023-05-10T07:16:00;8.07;;;5.50;;
22851;SDS011;11592;45.460;9.240;2023-05-10T07:18:28;9.55;;;5.38;;
22851;SDS011;11592;45.460;9.240;2023-05-10T07:20:56;7.30;;;4.45;;
22851;SDS011;11592;45.460;9.240;2023-05-10T07:23:23;10.10;;;5.18;;
22851;SDS011;11592;45.460;9.240;2023-05-10T07:25:50;5.90;;;4.68;;
22851;SDS011;11592;45.460;9.240;2023-05-10T07:28:18;6.32;;;4.53;;
22851;SDS011;11592;45.460;9.240;2023-05-10T07:30:45;5.28;;;4.30;;
22851;SDS011;11592;45.460;9.240;2023-05-10T07:33:13;13.65;;;4.65;;
22851;SDS011;11592;45.460;9.240;2023-05-10T07:35:40;9.20;;;4.57;;
22851;SDS011;11592;45.460;9.240;2023-05-10T07:38:07;5.60;;;4.70;;
22851;SDS011;11592;45.460;9.240;2023-05-10T07:40:34;7.63;;;4.63;;
22851;SDS011;11592;45.460;9.240;2023-05-10T07:43:00;7.80;;;4.30;;
22851;SDS011;11592;45.460;9.240;2023-05-10T07:45:28;6.90;;;4.35;;
22851;SDS011;11592;45.460;9.240;2023-05-10T07:47:55;7.50;;;4.20;;
22851;SDS011;11592;45.460;9.240;2023-05-10T07:50:22;5.50;;;4.07;;
22851;SDS011;11592;45.460;9.240;2023-05-10T07:52:49;5.57;;;3.88;;
22851;SDS011;11592;45.460;9.240;2023-05-10T07:55:16;5.35;;;3.92;;
22851;SDS011;11592;45.460;9.240;2023-05-10T07:57:45;5.28;;;3.72;;
22851;SDS011;11592;45.460;9.240;2023-05-10T08:00:12;6.47;;;3.67;;
22851;SDS011;11592;45.460;9.240;2023-05-10T08:02:40;6.72;;;3.97;;
22851;SDS011;11592;45.460;9.240;2023-05-10T08:05:07;4.70;;;3.60;;
22851;SDS011;11592;45.460;9.240;2023-05-10T08:07:34;5.50;;;3.60;;
22851;SDS011;11592;45.460;9.240;2023-05-10T08:10:02;6.18;;;3.67;;
22851;SDS011;11592;45.460;9.240;2023-05-10T08:12:29;4.85;;;3.60;;
22851;SDS011;11592;45.460;9.240;2023-05-10T08:14:56;5.75;;;4.28;;
22851;SDS011;11592;45.460;9.240;2023-05-10T08:17:23;6.00;;;4.22;;
22851;SDS011;11592;45.460;9.240;2023-05-10T08:19:50;5.90;;;4.45;;
22851;SDS011;11592;45.460;9.240;2023-05-10T08:22:16;6.60;;;4.30;;
22851;SDS011;11592;45.460;9.240;2023-05-10T08:24:43;5.38;;;3.95;;
22851;SDS011;11592;45.460;9.240;2023-05-10T08:27:10;5.70;;;3.70;;
22851;SDS011;11592;45.460;9.240;2023-05-10T08:29:37;5.78;;;4.40;;
22851;SDS011;11592;45.460;9.240;2023-05-10T08:32:15;6.07;;;4.30;;
22851;SDS011;11592;45.460;9.240;2023-05-10T08:34:42;5.70;;;4.10;;
22851;SDS011;11592;45.460;9.240;2023-05-10T08:37:09;6.10;;;4.55;;
22851;SDS011;11592;45.460;9.240;2023-05-10T08:39:39;6.43;;;4.13;;
22851;SDS011;11592;45.460;9.240;2023-05-10T08:42:06;5.47;;;4.07;;
22851;SDS011;11592;45.460;9.240;2023-05-10T08:44:34;6.10;;;3.80;;
22851;SDS011;11592;45.460;9.240;2023-05-10T08:47:04;5.28;;;3.85;;
22851;SDS011;11592;45.460;9.240;2023-05-10T08:49:33;4.95;;;4.00;;
22851;SDS011;11592;45.460;9.240;2023-05-10T08:52:02;4.18;;;3.40;;
22851;SDS011;11592;45.460;9.240;2023-05-10T08:54:33;5.93;;;3.70;;
22851;SDS011;11592;45.460;9.240;2023-05-10T08:57:00;5.30;;;3.90;;
22851;SDS011;11592;45.460;9.240;2023-05-10T08:59:27;6.20;;;4.03;;
22851;SDS011;11592;45.460;9.240;2023-05-10T09:01:57;5.97;;;3.88;;
22851;SDS011;11592;45.460;9.240;2023-05-10T09:04:25;5.05;;;3.70;;
22851;SDS011;11592;45.460;9.240;2023-05-10T09:06:52;7.13;;;3.92;;
22851;SDS011;11592;45.460;9.240;2023-05-10T09:09:19;7.63;;;3.92;;
22851;SDS011;11592;45.460;9.240;2023-05-10T09:11:47;5.35;;;3.35;;
22851;SDS011;11592;45.460;9.240;2023-05-10T09:14:14;4.55;;;3.58;;
22851;SDS011;11592;45.460;9.240;2023-05-10T09:16:42;5.18;;;3.70;;
22851;SDS011;11592;45.460;9.240;2023-05-10T09:19:09;3.33;;;2.90;;
22851;SDS011;11592;45.460;9.240;2023-05-10T09:21:36;4.22;;;3.45;;
22851;SDS011;11592;45.460;9.240;2023-05-10T09:24:07;4.45;;;3.22;;
22851;SDS011;11592;45.460;9.240;2023-05-10T09:26:35;3.65;;;3.08;;
22851;SDS011;11592;45.460;9.240;2023-05-10T09:29:11;4.45;;;3.00;;
22851;SDS011;11592;45.460;9.240;2023-05-10T09:31:45;4.55;;;2.70;;
22851;SDS011;11592;45.460;9.240;2023-05-10T09:34:20;3.58;;;2.80;;
22851;SDS011;11592;45.460;9.240;2023-05-10T09:36:56;3.17;;;2.50;;
22851;SDS011;11592;45.460;9.240;2023-05-10T09:39:30;4.05;;;3.00;;
22851;SDS011;11592;45.460;9.240;2023-05-10T09:42:17;3.88;;;3.20;;
22851;SDS011;11592;45.460;9.240;2023-05-10T09:47:16;4.10;;;2.50;;
22851;SDS011;11592;45.460;9.240;2023-05-10T09:49:53;4.40;;;3.40;;
22851;SDS011;11592;45.460;9.240;2023-05-10T09:52:23;4.05;;;3.30;;
22851;SDS011;11592;45.460;9.240;2023-05-10T09:54:54;4.05;;;3.50;;
22851;SDS011;11592;45.460;9.240;2023-05-10T09:57:21;3.75;;;3.22;;
22851;SDS011;11592;45.460;9.240;2023-05-10T09:59:48;4.55;;;3.63;;
22851;SDS011;11592;45.460;9.240;2023-05-10T10:02:16;4.50;;;3.63;;
22851;SDS011;11592;45.460;9.240;2023-05-10T10:04:43;3.90;;;3.22;;
22851;SDS011;11592;45.460;9.240;2023-05-10T10:07:10;4.13;;;3.53;;
22851;SDS011;11592;45.460;9.240;2023-05-10T10:09:37;4.07;;;3.60;;
22851;SDS011;11592;45.460;9.240;2023-05-10T10:12:05;6.68;;;3.83;;
22851;SDS011;11592;45.460;9.240;2023-05-10T10:14:32;4.75;;;3.55;;
22851;SDS011;11592;45.460;9.240;2023-05-10T10:17:00;4.30;;;3.38;;
22851;SDS011;11592;45.460;9.240;2023-05-10T10:19:30;5.93;;;3.40;;
22851;SDS011;11592;45.460;9.240;2023-05-10T10:22:00;5.53;;;2.97;;
22851;SDS011;11592;45.460;9.240;2023-05-10T10:24:27;4.82;;;3.35;;
22851;SDS011;11592;45.460;9.240;2023-05-10T10:26:54;4.40;;;3.00;;
22851;SDS011;11592;45.460;9.240;2023-05-10T10:29:29;5.45;;;3.22;;
22851;SDS011;11592;45.460;9.240;2023-05-10T10:34:35;4.93;;;2.70;;
22851;SDS011;11592;45.460;9.240;2023-05-10T10:37:05;5.80;;;3.35;;
22851;SDS011;11592;45.460;9.240;2023-05-10T10:39:32;7.28;;;3.70;;
22851;SDS011;11592;45.460;9.240;2023-05-10T10:42:03;4.38;;;3.33;;
22851;SDS011;11592;45.460;9.240;2023-05-10T10:49:41;4.10;;;3.13;;
22851;SDS011;11592;45.460;9.240;2023-05-10T10:55:13;3.78;;;2.92;;
22851;SDS011;11592;45.460;9.240;2023-05-10T11:00:30;5.72;;;3.85;;
22851;SDS011;11592;45.460;9.240;2023-05-10T11:05:41;5.30;;;3.00;;
22851;SDS011;11592;45.460;9.240;2023-05-10T11:13:45;6.53;;;3.80;;
22851;SDS011;11592;45.460;9.240;2023-05-10T11:19:02;4.65;;;3.50;;
22851;SDS011;11592;45.460;9.240;2023-05-10T11:24:39;7.32;;;3.65;;
22851;SDS011;11592;45.460;9.240;2023-05-10T11:27:06;4.70;;;3.60;;
22851;SDS011;11592;45.460;9.240;2023-05-10T11:29:33;5.05;;;3.40;;
22851;SDS011;11592;45.460;9.240;2023-05-10T11:31:59;7.88;;;4.50;;
22851;SDS011;11592;45.460;9.240;2023-05-10T11:34:30;9.90;;;4.28;;
22851;SDS011;11592;45.460;9.240;2023-05-10T11:37:00;8.05;;;4.43;;
22851;SDS011;11592;45.460;9.240;2023-05-10T11:39:27;5.75;;;4.18;;
22851;SDS011;11592;45.460;9.240;2023-05-10T11:41:55;4.70;;;4.03;;
22851;SDS011;11592;45.460;9.240;2023-05-10T11:44:24;5.55;;;4.55;;
22851;SDS011;11592;45.460;9.240;2023-05-10T11:46:58;5.55;;;4.60;;
22851;SDS011;11592;45.460;9.240;2023-05-10T11:49:27;5.60;;;5.00;;
22851;SDS011;11592;45.460;9.240;2023-05-10T11:52:04;6.53;;;5.10;;
22851;SDS011;11592;45.460;9.240;2023-05-10T11:54:32;6.13;;;4.80;;
22851;SDS011;11592;45.460;9.240;2023-05-10T11:57:01;8.20;;;4.78;;
22851;SDS011;11592;45.460;9.240;2023-05-10T11:59:27;5.45;;;4.82;;
22851;SDS011;11592;45.460;9.240;2023-05-10T12:01:54;5.88;;;4.45;;
22851;SDS011;11592;45.460;9.240;2023-05-10T12:04:21;6.95;;;4.78;;
22851;SDS011;11592;45.460;9.240;2023-05-10T12:06:48;7.10;;;4.20;;
22851;SDS011;11592;45.460;9.240;2023-05-10T12:09:15;5.28;;;4.53;;
22851;SDS011;11592;45.460;9.240;2023-05-10T12:11:48;5.15;;;4.25;;
22851;SDS011;11592;45.460;9.240;2023-05-10T12:14:15;4.78;;;3.72;;
22851;SDS011;11592;45.460;9.240;2023-05-10T12:16:42;5.85;;;4.07;;
22851;SDS011;11592;45.460;9.240;2023-05-10T12:19:09;8.25;;;3.70;;
22851;SDS011;11592;45.460;9.240;2023-05-10T12:21:36;8.10;;;3.95;;
22851;SDS011;11592;45.460;9.240;2023-05-10T12:24:04;4.90;;;3.67;;
22851;SDS011;11592;45.460;9.240;2023-05-10T12:26:31;4.90;;;3.78;;
22851;SDS011;11592;45.460;9.240;2023-05-10T12:29:11;4.70;;;3.67;;
22851;SDS011;11592;45.460;9.240;2023-05-10T12:31:50;5.45;;;3.70;;
22851;SDS011;11592;45.460;9.240;2023-05-10T12:34:30;4.85;;;3.63;;
22851;SDS011;11592;45.460;9.240;2023-05-10T12:36:59;3.78;;;3.38;;
22851;SDS011;11592;45.460;9.240;2023-05-10T12:39:37;7.07;;;3.92;;
22851;SDS011;11592;45.460;9.240;2023-05-10T12:42:08;5.78;;;3.40;;
22851;SDS011;11592;45.460;9.240;2023-05-10T12:44:35;4.30;;;3.17;;
22851;SDS011;11592;45.460;9.240;2023-05-10T12:47:02;4.15;;;3.00;;
22851;SDS011;11592;45.460;9.240;2023-05-10T12:49:29;3.53;;;2.90;;
22851;SDS011;11592;45.460;9.240;2023-05-10T12:51:55;4.10;;;2.72;;
22851;SDS011;11592;45.460;9.240;2023-05-10T12:54:22;3.97;;;3.17;;
22851;SDS011;11592;45.460;9.240;2023-05-10T12:56:49;5.13;;;3.60;;
22851;SDS011;11592;45.460;9.240;2023-05-10T12:59:15;3.95;;;3.03;;
22851;SDS011;11592;45.460;9.240;2023-05-10T13:01:42;5.80;;;3.45;;
22851;SDS011;11592;45.460;9.240;2023-05-10T13:04:09;5.13;;;3.58;;
22851;SDS011;11592;45.460;9.240;2023-05-10T13:06:36;3.70;;;3.25;;
22851;SDS011;11592;45.460;9.240;2023-05-10T13:09:02;4.20;;;3.50;;
22851;SDS011;11592;45.460;9.240;2023-05-10T13:11:29;4.32;;;3.38;;
22851;SDS011;11592;45.460;9.240;2023-05-10T13:13:56;4.90;;;3.25;;
22851;SDS011;11592;45.460;9.240;2023-05-10T13:16:23;4.47;;;3.28;;
22851;SDS011;11592;45.460;9.240;2023-05-10T13:18:50;3.92;;;3.30;;
22851;SDS011;11592;45.460;9.240;2023-05-10T13:21:16;4.10;;;3.55;;
22851;SDS011;11592;45.460;9.240;2023-05-10T13:23:43;4.65;;;3.78;;
22851;SDS011;11592;45.460;9.240;2023-05-10T13:26:10;3.78;;;3.45;;
22851;SDS011;11592;45.460;9.240;2023-05-10T13:28:37;4.45;;;3.35;;
22851;SDS011;11592;45.460;9.240;2023-05-10T13:31:04;6.80;;;3.50;;
22851;SDS011;11592;45.460;9.240;2023-05-10T13:33:31;4.05;;;3.63;;
22851;SDS011;11592;45.460;9.240;2023-05-10T13:35:58;4.75;;;3.67;;
22851;SDS011;11592;45.460;9.240;2023-05-10T13:38:25;4.63;;;3.80;;
22851;SDS011;11592;45.460;9.240;2023-05-10T13:40:52;4.78;;;3.95;;
22851;SDS011;11592;45.460;9.240;2023-05-10T13:43:19;5.28;;;3.95;;
22851;SDS011;11592;45.460;9.240;2023-05-10T13:45:46;4.82;;;3.83;;
22851;SDS011;11592;45.460;9.240;2023-05-10T13:48:12;4.25;;;3.53;;
22851;SDS011;11592;45.460;9.240;2023-05-10T13:50:39;5.07;;;4.03;;
22851;SDS011;11592;45.460;9.240;2023-05-10T13:53:06;8.48;;;4.22;;
22851;SDS011;11592;45.460;9.240;2023-05-10T13:55:33;7.25;;;3.95;;
22851;SDS011;11592;45.460;9.240;2023-05-10T13:57:59;6.53;;;4.50;;
22851;SDS011;11592;45.460;9.240;2023-05-10T14:00:26;4.63;;;3.75;;
22851;SDS011;11592;45.460;9.240;2023-05-10T14:02:53;4.97;;;4.03;;
22851;SDS011;11592;45.460;9.240;2023-05-10T14:05:20;5.60;;;3.85;;
22851;SDS011;11592;45.460;9.240;2023-05-10T14:07:51;5.75;;;4.45;;
22851;SDS011;11592;45.460;9.240;2023-05-10T14:10:18;6.43;;;3.92;;
22851;SDS011;11592;45.460;9.240;2023-05-10T14:12:44;4.60;;;4.15;;
22851;SDS011;11592;45.460;9.240;2023-05-10T14:15:11;5.63;;;4.00;;
22851;SDS011;11592;45.460;9.240;2023-05-10T14:17:38;5.70;;;3.90;;
22851;SDS011;11592;45.460;9.240;2023-05-10T14:20:05;5.05;;;3.70;;
22851;SDS011;11592;45.460;9.240;2023-05-10T14:22:33;5.80;;;4.10;;
22851;SDS011;11592;45.460;9.240;2023-05-10T14:25:00;6.75;;;4.00;;
22851;SDS011;11592;45.460;9.240;2023-05-10T14:27:27;6.32;;;4.18;;
22851;SDS011;11592;45.460;9.240;2023-05-10T14:29:53;5.22;;;3.72;;
22851;SDS011;11592;45.460;9.240;2023-05-10T14:32:20;5.65;;;4.50;;
22851;SDS011;11592;45.460;9.240;2023-05-10T14:34:47;6.05;;;4.03;;
22851;SDS011;11592;45.460;9.240;2023-05-10T14:37:14;9.48;;;4.38;;
22851;SDS011;11592;45.460;9.240;2023-05-10T14:39:41;5.00;;;4.28;;
22851;SDS011;11592;45.460;9.240;2023-05-10T14:42:08;6.45;;;3.70;;
22851;SDS011;11592;45.460;9.240;2023-05-10T14:44:35;4.10;;;3.70;;
22851;SDS011;11592;45.460;9.240;2023-05-10T14:47:02;4.85;;;3.78;;
22851;SDS011;11592;45.460;9.240;2023-05-10T14:49:29;6.18;;;4.63;;
22851;SDS011;11592;45.460;9.240;2023-05-10T14:51:55;5.63;;;4.30;;
22851;SDS011;11592;45.460;9.240;2023-05-10T14:54:22;3.97;;;3.58;;
22851;SDS011;11592;45.460;9.240;2023-05-10T14:56:49;4.85;;;4.38;;
22851;SDS011;11592;45.460;9.240;2023-05-10T14:59:16;4.30;;;3.70;;
22851;SDS011;11592;45.460;9.240;2023-05-10T15:01:44;4.45;;;3.78;;
22851;SDS011;11592;45.460;9.240;2023-05-10T15:04:11;5.22;;;4.10;;
22851;SDS011;11592;45.460;9.240;2023-05-10T15:06:40;5.38;;;3.97;;
22851;SDS011;11592;45.460;9.240;2023-05-10T15:09:07;5.07;;;4.43;;
22851;SDS011;11592;45.460;9.240;2023-05-10T15:11:33;4.60;;;3.67;;
22851;SDS011;11592;45.460;9.240;2023-05-10T15:14:00;5.07;;;4.00;;
22851;SDS011;11592;45.460;9.240;2023-05-10T15:16:27;4.78;;;3.58;;
22851;SDS011;11592;45.460;9.240;2023-05-10T15:18:54;6.03;;;3.65;;
22851;SDS011;11592;45.460;9.240;2023-05-10T15:21:21;7.00;;;3.47;;
22851;SDS011;11592;45.460;9.240;2023-05-10T15:23:48;4.97;;;4.00;;
22851;SDS011;11592;45.460;9.240;2023-05-10T15:26:14;5.50;;;3.40;;
22851;SDS011;11592;45.460;9.240;2023-05-10T15:28:41;3.83;;;3.40;;
22851;SDS011;11592;45.460;9.240;2023-05-10T15:31:09;5.75;;;3.67;;
22851;SDS011;11592;45.460;9.240;2023-05-10T15:33:36;3.65;;;3.15;;
22851;SDS011;11592;45.460;9.240;2023-05-10T15:36:04;6.72;;;3.20;;
22851;SDS011;11592;45.460;9.240;2023-05-10T15:38:31;4.70;;;3.00;;